createdAt,value
2022-12-16T00:01:51.676Z,19.60
2022-12-16T00:06:54.911Z,17.57
2022-12-16T00:11:57.790Z,18.03
2022-12-16T00:17:01.874Z,13.87
2022-12-16T00:22:04.651Z,13.73
2022-12-16T00:27:07.444Z,14.83
2022-12-16T00:32:12.918Z,10.77
2022-12-16T00:37:15.620Z,13.50
2022-12-16T00:42:18.310Z,15.83
2022-12-16T00:47:22.385Z,14.93
2022-12-16T00:52:25.139Z,15.57
2022-12-16T00:57:27.843Z,13.00
2022-12-16T01:02:32.021Z,13.80
2022-12-16T01:07:35.163Z,14.13
2022-12-16T01:12:38.556Z,15.53
2022-12-16T01:17:42.893Z,19.50
2022-12-16T01:22:45.684Z,17.70
2022-12-16T01:27:48.571Z,18.83
2022-12-16T01:32:52.661Z,18.23
2022-12-16T01:37:55.376Z,20.47
2022-12-16T01:42:58.286Z,21.83
2022-12-16T01:48:05.653Z,18.27
2022-12-16T01:53:08.585Z,19.60
2022-12-16T01:58:14.319Z,18.77
2022-12-16T02:03:18.560Z,21.63
2022-12-16T02:08:21.440Z,20.93
2022-12-16T02:13:29.625Z,22.20
2022-12-16T02:18:43.127Z,15.90
2022-12-16T02:24:02.858Z,16.23
2022-12-16T02:29:20.927Z,16.23
2022-12-16T02:34:31.810Z,18.73
2022-12-16T02:39:39.045Z,15.77
2022-12-16T02:44:47.489Z,14.80
2022-12-16T02:49:53.550Z,16.23
2022-12-16T02:55:01.470Z,16.77
2022-12-16T03:00:07.391Z,17.40
2022-12-16T03:05:16.123Z,18.53
2022-12-16T03:10:21.135Z,12.57
2022-12-16T03:15:26.434Z,13.10
2022-12-16T03:20:34.356Z,12.70
2022-12-16T03:25:38.584Z,12.33
2022-12-16T03:30:45.842Z,15.03
2022-12-16T03:35:52.161Z,13.00
2022-12-16T03:40:56.327Z,13.47
2022-12-16T03:46:03.021Z,17.13
2022-12-16T03:51:07.486Z,14.87
2022-12-16T03:56:10.548Z,15.40
2022-12-16T04:01:13.517Z,11.97
2022-12-16T04:06:18.698Z,14.30
2022-12-16T04:11:39.048Z,14.07
2022-12-16T04:16:59.233Z,13.33
2022-12-16T04:22:20.981Z,12.80
2022-12-16T04:27:27.637Z,17.40
2022-12-16T04:32:52.187Z,14.97
2022-12-16T04:38:13.807Z,13.90
2022-12-16T04:43:34.621Z,15.80
2022-12-16T04:48:55.305Z,13.80
2022-12-16T04:54:16.934Z,18.50
2022-12-16T04:59:37.145Z,13.70
2022-12-16T05:04:57.609Z,16.10
2022-12-16T05:10:19.030Z,14.57
2022-12-16T05:15:39.400Z,13.03
2022-12-16T05:20:59.826Z,13.07
2022-12-16T05:26:21.587Z,13.93
2022-12-16T05:31:41.829Z,12.70
2022-12-16T05:37:02.454Z,14.13
2022-12-16T05:42:24.365Z,14.23
2022-12-16T05:47:45.259Z,13.00
2022-12-16T05:53:08.825Z,12.87
2022-12-16T05:58:30.258Z,16.07
2022-12-16T06:03:50.703Z,11.97
2022-12-16T06:09:11.205Z,13.07
2022-12-16T06:14:32.803Z,18.40
2022-12-16T06:19:52.927Z,14.30
2022-12-16T06:25:13.159Z,13.77
2022-12-16T06:30:34.795Z,13.57
2022-12-16T06:35:55.000Z,13.23
2022-12-16T06:41:20.742Z,15.33
2022-12-16T06:46:42.043Z,15.60
2022-12-16T06:52:02.426Z,14.30
2022-12-16T06:57:22.645Z,14.93
2022-12-16T07:02:44.358Z,11.47
2022-12-16T07:08:08.312Z,13.30
2022-12-16T07:13:28.534Z,17.33
2022-12-16T07:18:49.967Z,15.70
2022-12-16T07:24:10.200Z,11.70
2022-12-16T07:29:30.317Z,14.27
2022-12-16T07:34:52.318Z,15.83
2022-12-16T07:40:12.528Z,15.37
2022-12-16T07:45:32.083Z,14.80
2022-12-16T07:50:53.721Z,14.13
2022-12-16T07:56:12.959Z,16.80
2022-12-16T08:01:33.869Z,14.47
2022-12-16T08:06:55.592Z,16.03
2022-12-16T08:12:15.966Z,17.07
2022-12-16T08:17:41.377Z,16.60
2022-12-16T08:23:02.782Z,14.23
2022-12-16T08:28:23.474Z,17.30
2022-12-16T08:33:43.772Z,13.90
2022-12-16T08:39:19.742Z,13.63
2022-12-16T08:44:40.053Z,13.83
2022-12-16T08:50:02.162Z,13.73
2022-12-16T08:55:29.528Z,13.53
2022-12-16T09:00:50.041Z,17.07
2022-12-16T09:06:10.828Z,15.13
2022-12-16T09:11:47.278Z,19.97
2022-12-16T09:17:07.839Z,13.93
2022-12-16T09:22:29.842Z,15.00
2022-12-16T09:27:51.580Z,14.03
2022-12-16T09:33:11.824Z,15.80
2022-12-16T09:38:32.479Z,18.43
2022-12-16T09:44:05.277Z,18.77
2022-12-16T09:49:33.339Z,13.87
2022-12-16T09:54:56.054Z,16.73
2022-12-16T10:00:19.568Z,19.50
2022-12-16T10:05:48.442Z,20.70
2022-12-16T10:11:14.775Z,18.00
2022-12-16T10:16:41.835Z,16.80
2022-12-16T10:22:07.312Z,16.37
2022-12-16T10:27:32.848Z,17.43
2022-12-16T10:32:58.545Z,17.33
2022-12-16T10:38:19.083Z,17.73
2022-12-16T10:43:44.711Z,18.33
2022-12-16T10:49:06.668Z,19.93
2022-12-16T10:54:43.298Z,22.73
2022-12-16T11:00:07.811Z,24.37
2022-12-16T11:05:49.057Z,21.37
2022-12-16T11:11:09.485Z,23.93
2022-12-16T11:16:33.083Z,22.13
2022-12-16T11:21:54.642Z,21.63
2022-12-16T11:27:16.701Z,22.33
2022-12-16T11:32:39.056Z,30.53
2022-12-16T11:38:01.320Z,24.37
2022-12-16T11:43:22.789Z,25.10
2022-12-16T11:48:52.445Z,23.70
2022-12-16T11:54:18.257Z,21.73
2022-12-16T11:59:43.787Z,25.70
2022-12-16T12:05:06.912Z,27.87
2022-12-16T12:10:36.920Z,25.37
2022-12-16T12:16:03.243Z,26.73
2022-12-16T12:21:29.320Z,24.70
2022-12-16T12:26:52.213Z,24.90
2022-12-16T12:32:21.341Z,23.23
2022-12-16T12:37:45.136Z,26.23
2022-12-16T12:43:09.274Z,23.90
2022-12-16T12:48:34.282Z,24.77
2022-12-16T12:54:01.156Z,22.93
2022-12-16T12:59:37.521Z,26.87
2022-12-16T13:04:58.044Z,29.37
2022-12-16T13:10:36.835Z,25.13
2022-12-16T13:15:59.086Z,29.93
2022-12-16T13:21:19.301Z,24.30
2022-12-16T13:26:41.366Z,25.80
2022-12-16T13:32:18.377Z,25.97
2022-12-16T13:37:42.012Z,25.93
2022-12-16T13:43:11.317Z,23.17
2022-12-16T13:48:51.431Z,20.70
2022-12-16T13:54:12.600Z,26.13
2022-12-16T13:59:32.211Z,24.40
2022-12-16T14:04:56.672Z,26.73
2022-12-16T14:10:16.910Z,22.00
2022-12-16T14:15:41.669Z,23.03
2022-12-16T14:21:07.393Z,24.43
2022-12-16T14:26:30.259Z,25.00
2022-12-16T14:31:55.176Z,28.33
2022-12-16T14:37:22.275Z,22.73
2022-12-16T14:42:45.951Z,26.40
2022-12-16T14:48:06.461Z,25.07
2022-12-16T14:53:39.019Z,29.97
2022-12-16T14:58:59.680Z,25.17
2022-12-16T15:04:22.454Z,25.00
2022-12-16T15:09:46.849Z,19.73
2022-12-16T15:15:07.671Z,27.83
2022-12-16T15:20:34.925Z,27.37
2022-12-16T15:26:02.113Z,28.60
2022-12-16T15:31:32.808Z,22.37
2022-12-16T15:36:55.115Z,17.10
2022-12-16T15:42:16.619Z,19.10
2022-12-16T15:47:44.825Z,20.87
2022-12-16T15:53:04.939Z,24.43
2022-12-16T15:58:32.738Z,22.87
2022-12-16T16:03:53.579Z,18.20
2022-12-16T16:09:13.661Z,20.50
2022-12-16T16:14:35.148Z,20.57
2022-12-16T16:20:00.137Z,18.80
2022-12-16T16:25:24.613Z,22.30
2022-12-16T16:30:46.522Z,17.93
2022-12-16T16:36:06.811Z,18.70
2022-12-16T16:41:34.707Z,21.60
2022-12-16T16:46:57.801Z,22.97
2022-12-16T16:52:14.802Z,21.47
2022-12-16T16:57:35.620Z,17.17
2022-12-16T17:02:57.218Z,22.20
2022-12-16T17:08:17.459Z,24.10
2022-12-16T17:13:39.988Z,23.00
2022-12-16T17:19:01.464Z,24.03
2022-12-16T17:24:22.278Z,24.73
2022-12-16T17:29:43.260Z,21.83
2022-12-16T17:35:04.737Z,20.27
2022-12-16T17:40:25.921Z,23.23
2022-12-16T17:45:45.980Z,26.47
2022-12-16T17:51:07.987Z,24.97
2022-12-16T17:56:28.225Z,29.60
2022-12-16T18:01:48.617Z,32.23
2022-12-16T18:07:10.417Z,31.57
2022-12-16T18:12:30.687Z,30.70
2022-12-16T18:17:50.955Z,29.67
2022-12-16T18:23:12.839Z,29.80
2022-12-16T18:28:33.276Z,27.60
2022-12-16T18:33:53.432Z,30.70
2022-12-16T18:39:15.068Z,34.13
2022-12-16T18:44:35.343Z,25.73
2022-12-16T18:49:55.476Z,29.73
2022-12-16T18:55:16.976Z,26.33
2022-12-16T19:00:37.177Z,29.70
2022-12-16T19:05:57.665Z,28.50
2022-12-16T19:11:19.118Z,29.87
2022-12-16T19:16:39.720Z,30.47
2022-12-16T19:22:00.223Z,32.30
2022-12-16T19:27:21.869Z,31.23
2022-12-16T19:32:42.276Z,26.70
2022-12-16T19:38:02.746Z,28.63
2022-12-16T19:43:24.280Z,29.03
2022-12-16T19:48:44.715Z,29.30
2022-12-16T19:54:05.651Z,30.27
2022-12-16T19:59:27.024Z,31.40
2022-12-16T20:04:47.257Z,28.30
2022-12-16T20:10:07.521Z,27.90
2022-12-16T20:15:29.370Z,31.27
2022-12-16T20:20:49.935Z,30.47
2022-12-16T20:26:14.110Z,36.17
2022-12-16T20:31:35.798Z,30.97
2022-12-16T20:36:55.834Z,29.40
2022-12-16T20:42:16.500Z,24.83
2022-12-16T20:47:38.187Z,30.07
2022-12-16T20:52:58.526Z,28.57
2022-12-16T20:58:19.197Z,26.40
2022-12-16T21:03:41.334Z,29.83
2022-12-16T21:09:02.091Z,28.60
2022-12-16T21:14:22.762Z,26.40
2022-12-16T21:19:44.396Z,30.97
2022-12-16T21:25:04.781Z,25.00
2022-12-16T21:30:26.385Z,27.00
2022-12-16T21:35:47.872Z,27.07
2022-12-16T21:41:09.840Z,26.67
2022-12-16T21:46:30.420Z,21.97
2022-12-16T21:51:51.039Z,24.40
2022-12-16T21:57:12.189Z,22.50
2022-12-16T22:02:33.137Z,25.83
2022-12-16T22:13:36.263Z,24.43
2022-12-16T22:18:56.823Z,26.00
2022-12-16T22:24:18.642Z,26.77
2022-12-16T22:29:38.631Z,24.97
2022-12-16T22:34:58.916Z,23.90
2022-12-16T22:40:20.652Z,25.13
2022-12-16T22:45:41.206Z,27.17
2022-12-16T22:51:01.968Z,25.70
2022-12-16T22:56:24.120Z,23.83
2022-12-16T23:01:45.244Z,25.87
2022-12-16T23:07:05.733Z,24.53
2022-12-16T23:12:27.656Z,25.00
2022-12-16T23:17:47.776Z,22.03
2022-12-16T23:23:08.081Z,24.17
2022-12-16T23:28:29.563Z,24.43
2022-12-16T23:33:53.017Z,25.87
2022-12-16T23:39:17.520Z,25.60
2022-12-16T23:44:39.071Z,22.77
2022-12-16T23:49:56.749Z,22.87
2022-12-16T23:55:17.247Z,22.87
